Time;durP1;ratioP1;P1;durP2;ratioP2;P2;SDS_P1;SDS_P2;PMS_P1;PMS_P2;Temp;Humidity;BMP_temperature;BMP_pressure;BME280_temperature;BME280_humidity;BME280_pressure;Samples;Min_cycle;Max_cycle;Signal;HPM_P1;HPM_P2
2021/01/01 00:00:16;;;;;;;28.95;19.05;;;4.50;82.50;;;;;;4954071;29;20020;-95
2021/01/01 00:28:29;;;;;;;34.85;21.25;;;4.50;82.50;;;;;;4978621;28;20062;-89
2021/01/01 00:34:57;;;;;;;26.02;17.42;;;4.40;82.50;;;;;;4945565;28;20054;-88
2021/01/01 00:41:27;;;;;;;;;;;;;;;;;;;;;
2021/01/01 00:47:01;;;;;;;27.88;17.63;;;4.30;82.70;;;;;;4945496;28;20035;-89
2021/01/01 00:49:50;;;;;;;33.20;21.13;;;4.30;82.90;;;;;;4961910;28;20027;-90
2021/01/01 00:57:02;;;;;;;;;;;;;;;;;;;;;
2021/01/01 01:00:01;;;;;;;;;;;;;;;;;;;;;
2021/01/01 01:02:31;;;;;;;;;;;;;;;;;;;;;
2021/01/01 01:04:59;;;;;;;37.65;23.98;;;4.40;82.40;;;;;;4949749;28;20059;-86
2021/01/01 01:07:58;;;;;;;39.85;23.27;;;4.40;82.50;;;;;;4951839;28;20078;-87
2021/01/01 01:10:30;;;;;;;33.03;21.23;;;4.30;82.60;;;;;;4952720;28;20070;-87
2021/01/01 01:13:51;;;;;;;;;;;;;;;;;;;;;
2021/01/01 01:16:32;;;;;;;;;;;;;;;;;;;;;
2021/01/01 01:22:58;;;;;;;39.38;22.95;;;4.20;83.50;;;;;;4927605;29;20046;-88
2021/01/01 01:30:42;;;;;;;;;;;;;;;;;;;;;
2021/01/01 01:33:41;;;;;;;;;;;;;;;;;;;;;
2021/01/01 01:36:33;;;;;;;39.10;23.95;;;4.00;83.80;;;;;;4966631;28;20403;-88
2021/01/01 01:38:59;;;;;;;40.63;25.25;;;4.00;83.20;;;;;;4964924;28;20027;-88
2021/01/01 01:41:36;;;;;;;;;;;;;;;;;;;;;
2021/01/01 01:44:13;;;;;;;55.15;28.92;;;4.00;83.40;;;;;;4966978;28;20030;-88
2021/01/01 01:47:08;;;;;;;;;;;;;;;;;;;;;
2021/01/01 01:49:40;;;;;;;48.15;27.30;;;3.80;83.50;;;;;;4971487;28;20415;-87
2021/01/01 01:52:19;;;;;;;;;;;;;;;;;;;;;
2021/01/01 01:55:00;;;;;;;54.75;30.98;;;3.80;83.50;;;;;;4960616;28;20055;-92
2021/01/01 01:57:33;;;;;;;45.22;26.30;;;3.70;83.40;;;;;;4969394;28;20128;-87
2021/01/01 02:06:21;;;;;;;50.20;28.45;;;3.70;83.50;;;;;;4940698;28;20118;-88
2021/01/01 02:09:23;;;;;;;;;;;;;;;;;;;;;
2021/01/01 02:12:00;;;;;;;;;;;;;;;;;;;;;
2021/01/01 02:14:30;;;;;;;36.65;21.73;;;3.60;83.60;;;;;;4971275;28;20058;-87
2021/01/01 02:17:18;;;;;;;47.50;28.58;;;3.60;83.50;;;;;;4978674;28;20022;-88
2021/01/01 02:19:56;;;;;;;;;;;;;;;;;;;;;
2021/01/01 02:22:52;;;;;;;;;;;;;;;;;;;;;
2021/01/01 02:25:29;;;;;;;37.00;21.98;;;3.60;83.60;;;;;;4973390;28;20026;-87
2021/01/01 02:28:20;;;;;;;43.95;27.13;;;3.50;83.40;;;;;;4970295;28;20042;-87
2021/01/01 02:31:04;;;;;;;51.38;30.55;;;3.50;83.50;;;;;;4973845;28;20561;-87
2021/01/01 02:33:47;;;;;;;;;;;;;;;;;;;;;
2021/01/01 02:36:27;;;;;;;;;;;;;;;;;;;;;
2021/01/01 02:39:08;;;;;;;47.90;31.30;;;3.50;83.50;;;;;;4965730;28;20096;-87
2021/01/01 02:41:36;;;;;;;65.88;39.90;;;3.50;83.70;;;;;;4972888;28;20039;-87
2021/01/01 02:44:09;;;;;;;56.53;35.80;;;3.30;83.50;;;;;;4973275;28;20018;-87
2021/01/01 02:46:37;;;;;;;43.08;28.10;;;3.30;83.70;;;;;;4973681;28;20031;-88
2021/01/01 02:49:05;;;;;;;47.50;28.63;;;3.40;83.70;;;;;;4977277;28;20050;-88
2021/01/01 02:51:38;;;;;;;50.40;29.38;;;3.30;83.60;;;;;;4983661;28;20030;-87
2021/01/01 02:54:06;;;;;;;;;;;3.20;83.60;;;;;;4979978;28;20042;-88
2021/01/01 02:56:32;;;;;;;41.40;25.45;;;3.20;83.60;;;;;;4976052;28;19917;-87
2021/01/01 02:59:00;;;;;;;44.05;26.50;;;3.20;83.70;;;;;;4973606;28;20046;-87
2021/01/01 03:01:28;;;;;;;34.53;21.63;;;3.20;83.70;;;;;;4975901;28;20396;-87
2021/01/01 03:03:54;;;;;;;37.28;20.98;;;3.20;83.80;;;;;;4984837;28;20073;-87
2021/01/01 03:06:30;;;;;;;;;;;;;;;;;;;;;
2021/01/01 03:09:34;;;;;;;;;;;;;;;;;;;;;
2021/01/01 03:12:21;;;;;;;30.58;17.55;;;3.20;83.70;;;;;;4969033;28;20125;-88
2021/01/01 03:15:04;;;;;;;;;;;;;;;;;;;;;
2021/01/01 03:17:32;;;;;;;28.88;17.40;;;3.20;83.60;;;;;;4971259;28;20023;-88
2021/01/01 03:20:15;;;;;;;29.90;17.50;;;3.30;83.80;;;;;;4974297;28;20030;-87
2021/01/01 03:22:58;;;;;;;34.47;21.17;;;3.20;83.70;;;;;;4970893;28;20110;-88
2021/01/01 03:25:24;;;;;;;;;;;3.10;83.70;;;;;;4973328;28;20019;-89
2021/01/01 03:32:01;;;;;;;;;;;;;;;;;;;;;
2021/01/01 03:42:11;;;;;;;;;;;;;;;;;;;;;
2021/01/01 03:45:16;;;;;;;;;;;;;;;;;;;;;
2021/01/01 03:48:20;;;;;;;;;;;;;;;;;;;;;
2021/01/01 03:54:52;;;;;;;24.08;14.95;;;3.20;83.70;;;;;;4969270;28;20031;-87
2021/01/01 03:57:18;;;;;;;26.42;16.98;;;3.20;84.40;;;;;;4971010;28;20039;-88
2021/01/01 04:00:43;;;;;;;;;;;;;;;;;;;;;
2021/01/01 04:03:40;;;;;;;;;;;;;;;;;;;;;
2021/01/01 04:06:16;;;;;;;;;;;;;;;;;;;;;
2021/01/01 04:08:52;;;;;;;;;;;;;;;;;;;;;
2021/01/01 04:11:18;;;;;;;31.88;19.58;;;3.20;83.80;;;;;;4970328;28;20042;-85
2021/01/01 04:13:43;;;;;;;22.95;14.40;;;3.20;83.80;;;;;;4969792;28;20144;-85
2021/01/01 04:16:09;;;;;;;33.30;18.23;;;3.20;83.80;;;;;;4972748;28;20023;-85
2021/01/01 04:18:35;;;;;;;31.02;17.88;;;3.20;83.80;;;;;;4970214;28;20113;-87
2021/01/01 04:21:16;;;;;;;;;;;;;;;;;;;;;
2021/01/01 04:24:04;;;;;;;29.30;17.93;;;3.20;83.70;;;;;;4968038;28;20039;-87
2021/01/01 04:26:49;;;;;;;29.38;16.98;;;3.20;83.60;;;;;;4971775;28;20532;-87
2021/01/01 04:29:15;;;;;;;28.75;17.70;;;3.20;83.60;;;;;;4969423;28;20034;-87
2021/01/01 04:31:41;;;;;;;26.50;16.92;;;3.20;83.70;;;;;;4971248;28;20018;-87
2021/01/01 04:34:30;;;;;;;24.00;13.95;;;3.20;83.60;;;;;;4968913;28;20393;-88
2021/01/01 04:37:00;;;;;;;28.92;17.23;;;3.20;83.60;;;;;;4970902;28;20097;-89
2021/01/01 04:39:26;;;;;;;26.27;15.88;;;3.20;83.60;;;;;;4969710;28;20520;-89
2021/01/01 04:48:01;;;;;;;27.08;16.27;;;3.30;83.60;;;;;;4970250;28;20447;-88
2021/01/01 04:50:35;;;;;;;27.60;16.65;;;3.40;83.70;;;;;;4971389;28;20105;-88
2021/01/01 04:53:02;;;;;;;28.27;16.80;;;3.40;83.60;;;;;;4969351;28;20031;-87
2021/01/01 04:56:11;;;;;;;;;;;;;;;;;;;;;
2021/01/01 05:01:41;;;;;;;;;;;;;;;;;;;;;
2021/01/01 05:04:13;;;;;;;32.90;18.90;;;3.20;83.40;;;;;;4971390;28;20503;-88
2021/01/01 05:06:41;;;;;;;32.42;19.48;;;3.10;83.60;;;;;;4972097;28;20027;-87
2021/01/01 05:09:16;;;;;;;32.90;20.17;;;3.00;83.60;;;;;;4970191;28;20437;-87
2021/01/01 05:11:41;;;;;;;33.65;21.23;;;3.00;83.80;;;;;;4970132;28;20089;-87
2021/01/01 05:18:01;;;;;;;28.58;18.52;;;2.80;83.80;;;;;;4970002;28;20042;-86
2021/01/01 05:20:52;;;;;;;29.83;19.23;;;2.80;84.00;;;;;;4961591;28;20038;-87
2021/01/01 05:24:01;;;;;;;;;;;;;;;;;;;;;
2021/01/01 05:26:41;;;;;;;34.10;21.20;;;2.70;84.20;;;;;;4974405;28;20141;-90
2021/01/01 05:29:10;;;;;;;24.58;15.50;;;2.70;84.40;;;;;;4971132;28;20019;-91
2021/01/01 05:31:48;;;;;;;25.08;15.35;;;2.70;84.40;;;;;;4970115;28;20373;-90
2021/01/01 05:34:24;;;;;;;;;;;;;;;;;;;;;
2021/01/01 05:36:52;;;;;;;24.92;15.98;;;2.80;84.40;;;;;;4963072;28;20047;-90
2021/01/01 05:39:18;;;;;;;24.63;15.13;;;3.00;84.50;;;;;;4968484;28;20035;-90
2021/01/01 05:45:15;;;;;;;32.92;19.75;;;2.80;84.30;;;;;;4977761;28;20041;-93
2021/01/01 05:48:11;;;;;;;30.63;19.55;;;2.90;84.40;;;;;;4976952;28;20504;-87
2021/01/01 05:50:53;;;;;;;;;;;;;;;;;;;;;
2021/01/01 05:53:19;;;;;;;;;;;2.90;84.40;;;;;;4976270;28;20023;-88
2021/01/01 05:55:47;;;;;;;33.22;19.52;;;2.80;84.30;;;;;;4977377;28;20012;-87
2021/01/01 05:58:47;;;;;;;28.58;18.17;;;2.80;84.40;;;;;;4976722;28;20487;-87
2021/01/01 06:01:16;;;;;;;33.70;20.75;;;2.90;84.50;;;;;;4976841;28;20039;-87
2021/01/01 06:03:51;;;;;;;32.28;19.35;;;2.80;84.50;;;;;;4976004;28;20038;-87
2021/01/01 06:06:20;;;;;;;34.72;21.83;;;2.70;84.50;;;;;;4972024;28;20106;-88
2021/01/01 06:09:10;;;;;;;;;;;;;;;;;;;;;
2021/01/01 06:11:37;;;;;;;32.08;19.75;;;2.70;84.40;;;;;;4976810;28;20033;-86
2021/01/01 06:14:06;;;;;;;37.00;23.20;;;2.70;84.50;;;;;;4976283;28;20038;-86
2021/01/01 06:17:13;;;;;;;39.55;22.90;;;2.80;84.50;;;;;;4979914;28;20037;-87
2021/01/01 06:20:07;;;;;;;29.33;18.73;;;2.70;84.60;;;;;;4976203;28;20057;-88
2021/01/01 06:22:33;;;;;;;29.67;18.75;;;2.70;84.60;;;;;;4977781;28;20565;-86
2021/01/01 06:25:03;;;;;;;34.67;21.08;;;2.70;84.70;;;;;;4977714;28;20026;-87
2021/01/01 06:27:32;;;;;;;28.60;18.08;;;2.70;84.70;;;;;;4979137;28;20027;-87
2021/01/01 06:30:04;;;;;;;26.58;17.63;;;2.80;84.70;;;;;;4978326;28;20563;-86
2021/01/01 06:32:41;;;;;;;37.97;22.50;;;2.80;84.80;;;;;;4969780;28;20448;-86
2021/01/01 06:35:23;;;;;;;37.70;23.65;;;2.90;84.80;;;;;;4978374;28;20500;-87
2021/01/01 06:37:50;;;;;;;30.50;19.05;;;2.80;84.70;;;;;;4979034;28;20073;-85
2021/01/01 06:40:35;;;;;;;26.92;16.85;;;2.90;84.70;;;;;;4983848;28;20019;-87
2021/01/01 06:43:06;;;;;;;30.45;19.15;;;3.00;84.70;;;;;;4989933;28;20046;-86
2021/01/01 06:45:46;;;;;;;35.28;20.73;;;3.10;84.60;;;;;;4995953;28;20029;-87
2021/01/01 06:48:12;;;;;;;40.40;24.38;;;3.00;84.50;;;;;;4976999;28;20039;-87
2021/01/01 06:50:40;;;;;;;45.22;26.80;;;3.20;84.60;;;;;;4976704;28;20057;-86
2021/01/01 06:53:21;;;;;;;;;;;;;;;;;;;;;
2021/01/01 06:56:30;;;;;;;27.00;16.50;;;3.00;84.60;;;;;;4989438;28;20106;-87
2021/01/01 06:59:41;;;;;;;34.40;20.63;;;3.10;84.60;;;;;;4995002;28;20027;-87
2021/01/01 07:09:12;;;;;;;39.95;24.38;;;3.00;84.60;;;;;;4933709;28;20034;-87
2021/01/01 07:12:38;;;;;;;;;;;;;;;;;;;;;
2021/01/01 07:15:33;;;;;;;22.80;15.13;;;2.90;84.80;;;;;;4980308;28;20034;-85
2021/01/01 07:18:01;;;;;;;29.55;17.67;;;2.90;84.90;;;;;;4985583;28;20034;-86
2021/01/01 07:27:26;;;;;;;;;;;;;;;;;;;;;
2021/01/01 07:31:05;;;;;;;;;;;;;;;;;;;;;
2021/01/01 07:33:31;;;;;;;;;;;;;;;;;;;;;
2021/01/01 07:36:40;;;;;;;56.10;31.88;;;2.90;85.10;;;;;;4971761;28;20050;-87
2021/01/01 07:42:23;;;;;;;58.03;33.20;;;2.90;85.70;;;;;;4963930;28;20038;-86
2021/01/01 07:45:14;;;;;;;75.97;41.53;;;2.80;85.00;;;;;;4970963;28;20087;-86
2021/01/01 07:47:45;;;;;;;72.65;41.33;;;2.90;85.10;;;;;;4986638;28;20057;-84
2021/01/01 07:50:17;;;;;;;56.90;31.45;;;2.80;85.00;;;;;;4964825;28;20023;-86
2021/01/01 07:52:43;;;;;;;60.67;35.83;;;2.90;85.00;;;;;;4967044;28;20468;-86
2021/01/01 07:55:10;;;;;;;51.88;29.38;;;2.90;85.00;;;;;;4971966;28;20034;-86
2021/01/01 07:57:40;;;;;;;54.70;31.55;;;2.90;84.90;;;;;;4973499;28;20038;-88
2021/01/01 08:00:14;;;;;;;68.30;39.17;;;3.00;85.00;;;;;;4973483;28;20423;-87
2021/01/01 08:02:41;;;;;;;52.88;30.95;;;2.90;84.90;;;;;;4968824;28;20548;-86
2021/01/01 08:05:19;;;;;;;65.15;38.00;;;2.90;84.90;;;;;;4971704;28;20023;-87
2021/01/01 08:07:44;;;;;;;69.57;40.28;;;2.90;85.00;;;;;;4968251;28;20043;-87
2021/01/01 08:10:22;;;;;;;;;;;;;;;;;;;;;
2021/01/01 08:12:58;;;;;;;;;;;;;;;;;;;;;
2021/01/01 08:15:31;;;;;;;77.40;44.17;;;3.10;85.20;;;;;;4971570;28;20073;-86
2021/01/01 08:18:18;;;;;;;81.38;46.00;;;3.10;85.40;;;;;;4968514;28;20058;-87
2021/01/01 08:20:55;;;;;;;76.43;42.35;;;2.90;85.30;;;;;;4964076;28;20030;-87
2021/01/01 08:24:02;;;;;;;63.45;36.67;;;3.00;85.40;;;;;;4970781;28;20041;-88
2021/01/01 08:26:29;;;;;;;63.67;35.38;;;3.00;85.50;;;;;;4962739;28;20118;-87
2021/01/01 08:29:09;;;;;;;59.08;34.33;;;3.00;85.40;;;;;;4976674;28;20074;-88
2021/01/01 08:31:35;;;;;;;54.28;30.42;;;3.00;85.30;;;;;;4994045;28;20046;-89
2021/01/01 08:34:02;;;;;;;38.00;23.75;;;3.10;85.30;;;;;;4970701;28;20552;-91
2021/01/01 08:36:34;;;;;;;43.38;24.65;;;3.10;85.30;;;;;;4970962;28;20023;-91
2021/01/01 08:39:30;;;;;;;43.70;26.10;;;3.10;85.20;;;;;;4972288;28;20026;-90
2021/01/01 09:18:44;;;;;;;29.65;17.73;;;3.60;85.40;;;;;;4971224;28;20054;-91
2021/01/01 09:21:11;;;;;;;30.65;18.08;;;3.60;85.40;;;;;;4971707;28;20030;-87
2021/01/01 09:23:41;;;;;;;25.88;15.30;;;3.60;85.40;;;;;;4966854;28;20034;-93
2021/01/01 09:26:08;;;;;;;27.63;17.00;;;3.60;85.50;;;;;;4980307;28;20027;-95
2021/01/01 09:28:35;;;;;;;25.77;15.68;;;3.70;85.50;;;;;;4991797;28;20017;-94
2021/01/01 09:31:29;;;;;;;;;;;;;;;;;;;;;
2021/01/01 09:34:07;;;;;;;21.60;12.88;;;3.80;85.30;;;;;;4975391;28;20122;-95
2021/01/01 09:36:38;;;;;;;22.92;13.10;;;3.90;85.30;;;;;;4968613;28;20531;-96
2021/01/01 09:39:06;;;;;;;23.88;14.93;;;3.90;85.10;;;;;;4967038;28;20050;-96
2021/01/01 09:41:51;;;;;;;29.05;18.15;;;4.10;85.20;;;;;;4967585;28;20022;-96
2021/01/01 09:44:16;;;;;;;24.13;14.95;;;4.00;85.10;;;;;;4969537;28;20046;-96
2021/01/01 09:46:51;;;;;;;19.45;12.57;;;4.10;85.00;;;;;;4967777;28;20126;-94
2021/01/01 09:49:22;;;;;;;25.55;15.27;;;4.20;84.80;;;;;;4976485;28;20035;-95
2021/01/01 09:51:48;;;;;;;32.15;19.98;;;4.20;84.70;;;;;;4969863;28;20023;-96
2021/01/01 09:54:14;;;;;;;38.60;23.58;;;4.40;84.80;;;;;;4986249;28;20173;-94
2021/01/01 09:56:51;;;;;;;29.42;17.02;;;4.20;84.70;;;;;;4986715;28;20029;-94
2021/01/01 09:59:27;;;;;;;;;;;;;;;;;;;;;
2021/01/01 10:01:59;;;;;;;20.90;13.23;;;4.20;84.80;;;;;;4982753;28;20055;-94
2021/01/01 10:07:17;;;;;;;19.90;12.60;;;4.40;84.80;;;;;;4981338;28;20023;-95
2021/01/01 10:09:46;;;;;;;20.73;12.45;;;4.40;84.80;;;;;;4985806;28;20026;-96
2021/01/01 10:12:48;;;;;;;17.30;11.02;;;4.50;84.80;;;;;;5214582;23;21302;-96
2021/01/01 10:15:54;;;;;;;22.60;13.88;;;4.60;84.80;;;;;;4983241;28;20781;-95
2021/01/01 10:18:23;;;;;;;19.33;11.50;;;4.40;84.70;;;;;;5327901;23;20108;-94
2021/01/01 10:20:59;;;;;;;;;;;;;;;;;;;;;
2021/01/01 10:23:53;;;;;;;18.27;10.10;;;4.60;84.70;;;;;;4973220;28;20051;-95
2021/01/01 10:26:19;;;;;;;15.48;9.20;;;4.70;84.80;;;;;;4971404;28;20058;-94
2021/01/01 10:28:45;;;;;;;13.18;8.10;;;4.60;84.60;;;;;;4988806;28;20034;-95
2021/01/01 10:31:13;;;;;;;14.45;10.13;;;4.70;84.70;;;;;;4990940;28;20062;-95
2021/01/01 10:34:02;;;;;;;14.07;8.10;;;4.80;84.80;;;;;;4988234;28;20022;-95
2021/01/01 10:36:28;;;;;;;12.30;7.75;;;4.90;84.80;;;;;;4983818;28;20058;-94
2021/01/01 10:38:56;;;;;;;10.75;6.57;;;4.90;84.60;;;;;;4986156;28;20034;-94
2021/01/01 10:41:36;;;;;;;9.65;6.57;;;5.00;84.40;;;;;;4975355;28;20019;-95
2021/01/01 10:44:06;;;;;;;9.95;6.53;;;5.20;84.40;;;;;;4987472;28;20011;-94
2021/01/01 10:46:34;;;;;;;11.85;7.43;;;5.20;84.30;;;;;;4994065;28;20042;-94
2021/01/01 10:49:19;;;;;;;;;;;;;;;;;;;;;
2021/01/01 10:52:03;;;;;;;8.77;5.82;;;5.50;84.10;;;;;;4987357;28;20069;-94
2021/01/01 10:57:56;;;;;;;10.98;7.25;;;5.60;83.80;;;;;;4961904;28;20473;-96
2021/01/01 11:00:51;;;;;;;;;;;;;;;;;;;;;
2021/01/01 11:03:25;;;;;;;9.40;6.35;;;5.80;83.50;;;;;;4974212;28;20440;-95
2021/01/01 11:05:53;;;;;;;12.98;7.13;;;6.00;84.20;;;;;;4980681;28;20035;-95
2021/01/01 11:11:48;;;;;;;9.20;5.90;;;6.00;83.50;;;;;;4989704;28;20067;-96
2021/01/01 11:14:53;;;;;;;9.35;5.53;;;6.10;83.40;;;;;;4989006;28;20082;-92
2021/01/01 12:26:16;;;;;;;7.07;5.03;;;6.30;83.50;;;;;;5010340;28;20033;-94
2021/01/01 12:32:53;;;;;;;7.07;5.07;;;6.40;83.40;;;;;;4976866;28;20404;-94
2021/01/01 12:36:46;;;;;;;9.68;6.57;;;6.50;83.30;;;;;;4941002;29;20108;-96
2021/01/01 12:42:41;;;;;;;7.97;5.35;;;6.50;83.20;;;;;;4976968;28;20133;-95
2021/01/01 13:10:58;;;;;;;7.60;5.43;;;6.70;83.20;;;;;;4985332;28;20223;-94
2021/01/01 13:17:28;;;;;;;;;;;;;;;;;;;;;
2021/01/01 13:20:31;;;;;;;7.13;5.25;;;6.80;82.80;;;;;;4996526;28;20035;-95
2021/01/01 14:23:11;;;;;;;9.15;6.18;;;6.70;83.60;;;;;;4900930;29;20061;-94
2021/01/01 14:32:41;;;;;;;;;;;;;;;;;;;;;
2021/01/01 14:36:01;;;;;;;9.13;6.53;;;6.40;83.80;;;;;;4912607;28;20070;-94
2021/01/01 14:38:29;;;;;;;7.47;4.25;;;6.60;84.00;;;;;;4954266;28;20513;-94
2021/01/01 15:08:39;;;;;;;4.30;2.95;;;6.60;84.00;;;;;;4970252;28;20057;-92
2021/01/01 15:11:05;;;;;;;10.27;6.70;;;6.50;84.00;;;;;;4972462;28;20042;-93
2021/01/01 15:14:25;;;;;;;8.13;4.50;;;6.60;84.00;;;;;;4988894;28;20038;-96
2021/01/01 15:17:34;;;;;;;8.38;5.25;;;6.60;84.10;;;;;;4988504;28;20094;-94
2021/01/01 15:20:59;;;;;;;6.13;3.97;;;6.50;84.10;;;;;;4992994;28;20035;-94
2021/01/01 15:23:27;;;;;;;7.05;5.15;;;6.50;84.30;;;;;;4996644;28;20027;-96
2021/01/01 15:26:13;;;;;;;6.40;4.20;;;6.40;84.20;;;;;;4988410;28;20070;-96
2021/01/01 15:28:59;;;;;;;7.35;4.70;;;6.40;84.30;;;;;;4997901;28;20058;-96
2021/01/01 15:34:44;;;;;;;8.50;4.60;;;6.40;84.40;;;;;;4986919;28;20118;-95
2021/01/01 15:37:41;;;;;;;10.02;5.85;;;6.40;84.40;;;;;;4970763;28;20046;-96
2021/01/01 15:40:16;;;;;;;8.88;5.80;;;6.40;84.60;;;;;;4980976;28;20035;-96
2021/01/01 15:43:11;;;;;;;;;;;;;;;;;;;;;
2021/01/01 15:53:25;;;;;;;9.38;5.45;;;6.40;84.50;;;;;;4945534;28;20052;-94
2021/01/01 16:00:56;;;;;;;7.45;4.30;;;6.40;84.50;;;;;;4973893;28;20055;-95
2021/01/01 16:03:22;;;;;;;7.05;4.75;;;6.40;84.50;;;;;;4975040;28;20034;-92
2021/01/01 16:34:24;;;;;;;;;;;;;;;;;;;;;
2021/01/01 16:36:50;;;;;;;11.82;6.15;;;6.40;84.60;;;;;;4971251;28;20065;-92
2021/01/01 16:42:15;;;;;;;9.48;5.90;;;6.40;84.50;;;;;;4971423;28;20038;-92
2021/01/01 16:51:26;;;;;;;9.20;6.10;;;6.30;84.40;;;;;;5806322;23;20054;-93
2021/01/01 16:54:17;;;;;;;11.05;6.88;;;6.40;84.40;;;;;;4976345;28;20567;-94
2021/01/01 16:57:30;;;;;;;;;;;;;;;;;;;;;
2021/01/01 17:03:59;;;;;;;13.07;8.93;;;6.20;84.50;;;;;;4970854;28;20047;-92
2021/01/01 17:07:00;;;;;;;;;;;;;;;;;;;;;
2021/01/01 17:09:47;;;;;;;13.30;7.90;;;6.20;84.70;;;;;;4973422;28;20122;-93
2021/01/01 17:12:45;;;;;;;11.70;6.90;;;6.10;84.70;;;;;;4970141;28;20559;-94
2021/01/01 17:16:01;;;;;;;11.63;8.10;;;6.10;84.80;;;;;;4963517;28;20054;-92
2021/01/01 17:18:51;;;;;;;12.13;8.25;;;6.00;84.70;;;;;;4971362;28;20092;-92
2021/01/01 17:21:37;;;;;;;10.18;6.65;;;6.00;84.90;;;;;;4982550;28;20026;-92
2021/01/01 17:24:09;;;;;;;8.73;6.20;;;6.00;85.00;;;;;;4972883;28;20054;-92
2021/01/01 17:26:39;;;;;;;14.68;9.65;;;6.00;85.00;;;;;;4961794;28;20125;-91
2021/01/01 17:29:23;;;;;;;14.27;9.30;;;6.00;85.00;;;;;;4971999;28;20499;-93
2021/01/01 17:32:02;;;;;;;11.93;7.07;;;6.00;85.00;;;;;;4972692;28;20499;-91
2021/01/01 17:34:31;;;;;;;11.45;7.90;;;6.00;85.00;;;;;;4969178;28;20030;-91
2021/01/01 17:37:23;;;;;;;;;;;;;;;;;;;;;
2021/01/01 17:40:11;;;;;;;;;;;;;;;;;;;;;
2021/01/01 17:42:44;;;;;;;17.23;10.77;;;6.00;85.00;;;;;;4968312;28;20031;-93
2021/01/01 17:45:19;;;;;;;17.25;10.20;;;6.00;85.00;;;;;;4961875;28;20046;-93
2021/01/01 17:48:03;;;;;;;9.98;5.88;;;5.80;85.00;;;;;;4968193;28;20038;-95
2021/01/01 17:50:45;;;;;;;10.93;7.07;;;5.90;85.20;;;;;;4972164;28;20069;-95
2021/01/01 17:53:39;;;;;;;10.38;6.70;;;5.90;85.20;;;;;;4975286;28;20525;-94
2021/01/01 17:56:46;;;;;;;9.20;6.65;;;6.00;85.30;;;;;;4966169;28;20074;-95
2021/01/01 17:59:27;;;;;;;15.52;10.25;;;6.00;85.20;;;;;;4974692;28;20050;-95
2021/01/01 18:02:16;;;;;;;8.93;6.03;;;6.00;85.20;;;;;;4963367;28;20035;-94
2021/01/01 18:07:57;;;;;;;17.45;9.93;;;6.00;85.30;;;;;;4990119;28;20031;-93
2021/01/01 18:13:22;;;;;;;13.43;9.35;;;6.00;85.40;;;;;;4965011;28;20046;-96
2021/01/01 18:16:22;;;;;;;10.02;7.00;;;5.80;85.40;;;;;;4964671;28;20039;-95
2021/01/01 18:19:34;;;;;;;;;;;;;;;;;;;;;
2021/01/01 18:22:26;;;;;;;10.00;6.95;;;6.00;85.40;;;;;;4970032;28;20050;-96
2021/01/01 18:25:30;;;;;;;;;;;;;;;;;;;;;
2021/01/01 18:31:23;;;;;;;9.80;6.20;;;6.10;85.30;;;;;;4966707;28;20042;-96
2021/01/01 18:34:50;;;;;;;9.65;6.55;;;6.00;85.20;;;;;;4967742;28;20043;-95
2021/01/01 18:37:37;;;;;;;;;;;;;;;;;;;;;
2021/01/01 18:41:07;;;;;;;;;;;;;;;;;;;;;
2021/01/01 18:44:28;;;;;;;8.57;5.53;;;6.20;85.40;;;;;;4975399;28;20063;-95
2021/01/01 18:54:36;;;;;;;8.52;5.45;;;6.20;85.20;;;;;;4977842;28;20070;-95
2021/01/01 19:03:46;;;;;;;10.60;6.70;;;6.10;85.20;;;;;;5392254;23;20058;-96
2021/01/01 22:00:12;;;;;;;;;;;;;;;;;;;;;
2021/01/01 22:09:58;;;;;;;;;;;;;;;;;;;;;
2021/01/01 22:13:23;;;;;;;;;;;;;;;;;;;;;
2021/01/01 23:01:43;;;;;;;13.90;7.43;;;6.00;85.80;;;;;;4993294;28;20538;-94
2021/01/01 23:04:10;;;;;;;9.80;6.07;;;6.00;85.90;;;;;;4974471;28;20037;-94
2021/01/01 23:06:40;;;;;;;11.45;7.22;;;5.90;85.90;;;;;;4994030;28;20018;-93
2021/01/01 23:09:11;;;;;;;9.75;6.45;;;5.90;85.80;;;;;;5004543;28;20041;-92
2021/01/01 23:11:39;;;;;;;12.15;7.60;;;6.00;85.90;;;;;;5014540;28;20011;-92
2021/01/01 23:14:08;;;;;;;15.18;9.32;;;6.00;85.80;;;;;;4990529;28;20026;-92
2021/01/01 23:16:34;;;;;;;11.93;7.53;;;6.00;85.80;;;;;;4993228;28;20034;-92
2021/01/01 23:19:07;;;;;;;10.60;5.35;;;5.90;85.80;;;;;;4983105;28;20023;-92
2021/01/01 23:21:44;;;;;;;16.48;10.35;;;6.00;85.80;;;;;;4991988;28;20030;-86
2021/01/01 23:24:47;;;;;;;13.35;8.65;;;6.00;85.80;;;;;;4988298;28;20025;-85
2021/01/01 23:27:33;;;;;;;13.25;8.65;;;6.00;85.90;;;;;;4990820;28;20037;-86
2021/01/01 23:30:01;;;;;;;13.32;8.00;;;6.00;85.90;;;;;;4986940;28;20030;-86
2021/01/01 23:32:56;;;;;;;11.45;7.10;;;6.00;86.00;;;;;;4987569;28;20031;-87
2021/01/01 23:35:24;;;;;;;9.18;4.90;;;6.00;86.00;;;;;;4987275;28;20034;-87
2021/01/01 23:38:31;;;;;;;9.10;5.40;;;6.10;86.00;;;;;;4990674;28;20027;-85
2021/01/01 23:41:01;;;;;;;10.55;6.70;;;6.10;85.90;;;;;;4989777;28;20033;-84
2021/01/01 23:43:43;;;;;;;16.10;9.57;;;6.10;85.80;;;;;;4991292;28;20026;-85
2021/01/01 23:46:21;;;;;;;15.93;8.93;;;6.10;85.80;;;;;;4991260;28;20376;-85
2021/01/01 23:48:48;;;;;;;12.68;7.93;;;6.10;85.80;;;;;;4986362;28;20030;-85
2021/01/01 23:51:15;;;;;;;17.40;11.07;;;6.10;85.80;;;;;;4989059;28;20050;-85
2021/01/01 23:53:45;;;;;;;14.45;8.20;;;6.00;85.70;;;;;;4991303;28;20065;-85
2021/01/01 23:56:11;;;;;;;13.07;7.50;;;6.10;85.90;;;;;;4988145;28;20508;-85
2021/01/01 23:58:37;;;;;;;17.20;9.82;;;6.10;85.90;;;;;;4990064;28;20033;-85
